Airport View

Enter AWOS ICAO identifier for current METAR.

ex. KFNL

K3T5 051335Z AUTO 24007KT 10SM CLR 27/25 A3000 RMK AO2 T02700249

5 Aug 2020 13:40

Frequency: 124.175

Phone: 979-242-5777

Other Area AWOS: KGYB - K66R - KT20 - K11R

TAF KAUS 051120Z 0512/0618 20006KT P6SM FEW012 FM051700 17012KT P6SM FEW060 FM060400 18006KT P6SM SKC FM061100 20007KT P6SM BKN012 FM061500 20007KT P6SM SCT030